Time;durP1;ratioP1;P1;durP2;ratioP2;P2;SDS_P1;SDS_P2;PMS_P1;PMS_P2;Temp;Humidity;BMP_temperature;BMP_pressure;BME280_temperature;BME280_humidity;BME280_pressure;Samples;Min_cycle;Max_cycle;Signal;HPM_P1;HPM_P2
2022/06/26 00:00:07;;;;;;;10.80;7.97;;;;;;;23.08;78.46;99887.97;5069950;28;20032;-28
2022/06/26 00:02:33;;;;;;;12.02;7.13;;;;;;;23.02;79.96;99900.88;5069420;28;20059;-29
2022/06/26 00:04:58;;;;;;;11.40;8.00;;;;;;;22.75;82.75;99879.97;5068574;28;20029;-35
2022/06/26 00:07:24;;;;;;;9.88;7.32;;;;;;;22.81;82.65;99885.00;5051573;28;20024;-29
2022/06/26 00:09:50;;;;;;;10.68;7.90;;;;;;;22.91;83.00;99889.41;5069635;28;20107;-32
2022/06/26 00:12:16;;;;;;;8.68;6.65;;;;;;;22.21;84.98;99872.31;5069659;28;20037;-30
2022/06/26 00:14:41;;;;;;;9.98;7.40;;;;;;;22.28;84.64;99877.38;5069873;28;20021;-29
2022/06/26 00:17:07;;;;;;;10.57;6.90;;;;;;;22.45;82.94;99895.78;5069604;28;20497;-28
2022/06/26 00:19:33;;;;;;;10.88;6.95;;;;;;;22.65;83.25;99898.09;5068300;28;20139;-29
2022/06/26 00:21:59;;;;;;;8.60;6.90;;;;;;;22.27;84.28;99873.88;5051199;28;20032;-32
2022/06/26 00:24:24;;;;;;;8.82;6.85;;;;;;;22.44;82.14;99895.00;5069442;28;20031;-33
2022/06/26 00:26:50;;;;;;;10.30;6.82;;;;;;;22.61;84.09;99907.16;5069823;28;20112;-30
2022/06/26 00:29:15;;;;;;;10.20;7.75;;;;;;;22.47;83.82;99890.84;5069365;28;20016;-33
2022/06/26 00:31:41;;;;;;;9.95;7.03;;;;;;;22.37;84.49;99881.03;5069372;28;20025;-28
2022/06/26 00:34:06;;;;;;;9.95;7.30;;;;;;;;;;5050934;28;20058;-29
2022/06/26 00:36:32;;;;;;;9.85;7.13;;;;;;;22.46;84.69;99892.78;5069623;28;20154;-29
2022/06/26 00:38:57;;;;;;;10.30;6.88;;;;;;;22.20;86.48;99897.06;5068960;28;20740;-29
2022/06/26 00:41:23;;;;;;;10.80;7.03;;;;;;;21.86;85.40;99879.19;5069215;28;20032;-30
2022/06/26 00:43:49;;;;;;;9.82;6.18;;;;;;;21.89;84.78;99892.19;5069363;28;20112;-30
2022/06/26 00:46:14;;;;;;;11.20;7.00;;;;;;;21.95;84.07;99891.00;5069343;28;20032;-34
2022/06/26 00:48:40;;;;;;;10.88;6.53;;;;;;;21.82;85.09;99897.19;5069072;28;20086;-32
2022/06/26 00:51:06;;;;;;;11.23;6.53;;;;;;;21.93;86.76;99901.34;5069048;28;20025;-28
2022/06/26 00:53:31;;;;;;;9.77;6.40;;;;;;;21.85;87.26;99902.84;5050857;28;20028;-29
2022/06/26 00:55:58;;;;;;;8.73;6.60;;;;;;;22.14;85.73;99909.13;5068760;28;20197;-28
2022/06/26 00:58:24;;;;;;;12.38;6.78;;;;;;;21.91;87.72;99900.84;5050862;28;20036;-29
2022/06/26 01:00:50;;;;;;;9.73;7.22;;;;;;;21.71;91.24;99901.19;5068689;28;20028;-33
2022/06/26 01:03:15;;;;;;;9.05;6.55;;;;;;;21.59;93.81;99915.22;5068545;28;20149;-29
2022/06/26 01:05:41;;;;;;;12.73;6.97;;;;;;;21.65;93.75;99916.75;5050560;28;20016;-30
2022/06/26 01:08:07;;;;;;;10.77;7.22;;;;;;;21.72;93.40;99898.19;5068711;28;20086;-30
2022/06/26 01:10:34;;;;;;;10.60;6.95;;;;;;;21.75;93.23;99908.44;5050415;28;20025;-29
2022/06/26 01:13:00;;;;;;;9.30;6.68;;;;;;;21.78;92.00;99913.28;5067143;28;20085;-34
2022/06/26 01:15:27;;;;;;;8.90;6.30;;;;;;;22.10;90.56;99897.25;5068255;28;20024;-28
2022/06/26 01:17:54;;;;;;;9.63;6.80;;;;;;;21.98;90.28;99898.53;5050458;28;20581;-36
2022/06/26 01:20:19;;;;;;;7.90;6.53;;;;;;;21.95;89.85;99918.16;5068451;28;20047;-31
2022/06/26 01:22:55;;;;;;;12.05;7.25;;;;;;;22.02;91.61;99907.69;5068089;28;20480;-29
2022/06/26 01:25:20;;;;;;;11.38;7.93;;;;;;;22.51;89.21;99926.38;5050273;28;20515;-30
2022/06/26 01:27:46;;;;;;;10.55;7.70;;;;;;;22.33;87.05;99907.19;5068314;28;20033;-28
2022/06/26 01:30:12;;;;;;;9.32;7.90;;;;;;;22.31;86.20;99920.22;5068407;28;20094;-30
2022/06/26 01:32:37;;;;;;;10.48;7.70;;;;;;;22.24;86.81;99930.69;5050005;28;20036;-29
2022/06/26 01:35:04;;;;;;;9.82;8.27;;;;;;;21.93;88.51;99914.94;5049885;28;20020;-31
2022/06/26 01:37:29;;;;;;;12.23;7.47;;;;;;;21.70;89.84;99929.41;5067757;28;20031;-29
2022/06/26 01:39:54;;;;;;;12.25;8.15;;;;;;;21.46;91.68;99914.06;5068361;28;20127;-29
2022/06/26 01:42:20;;;;;;;11.00;8.80;;;;;;;21.38;93.82;99923.66;5067943;28;20059;-28
2022/06/26 01:44:46;;;;;;;12.60;8.38;;;;;;;21.52;93.35;99940.03;5049826;28;20575;-31
2022/06/26 01:47:11;;;;;;;12.02;8.10;;;;;;;21.62;92.39;99930.94;5066832;28;20416;-30
2022/06/26 01:49:36;;;;;;;12.15;8.10;;;;;;;21.40;94.16;99934.22;5067593;28;20673;-31
2022/06/26 01:52:02;;;;;;;10.82;8.38;;;;;;;21.07;95.39;99920.56;5049472;28;20772;-29
2022/06/26 01:54:28;;;;;;;11.55;8.10;;;;;;;21.16;95.67;99929.66;5067387;28;20024;-29
2022/06/26 01:56:53;;;;;;;14.95;8.88;;;;;;;21.21;96.03;99932.31;5068101;28;20028;-30
2022/06/26 01:59:18;;;;;;;11.82;8.27;;;;;;;21.05;96.46;99922.78;5067256;28;20027;-28
2022/06/26 02:01:44;;;;;;;13.57;8.73;;;;;;;21.27;95.89;99938.47;5048961;28;20052;-31
2022/06/26 02:04:12;;;;;;;9.65;7.90;;;;;;;21.30;96.97;99939.78;5067541;28;20029;-30
2022/06/26 02:06:38;;;;;;;11.38;9.30;;;;;;;21.45;95.37;99947.72;5065793;28;20028;-29
2022/06/26 02:09:04;;;;;;;11.35;9.10;;;;;;;21.43;95.74;99952.63;5067425;28;20055;-32
2022/06/26 02:14:13;;;;;;;14.40;9.50;;;;;;;21.39;97.39;99954.28;5067732;28;20067;-33
2022/06/26 02:16:39;;;;;;;13.30;9.13;;;;;;;21.13;99.92;99948.44;5066976;28;20052;-29
2022/06/26 02:19:04;;;;;;;12.93;9.18;;;;;;;21.06;100.00;99951.50;5066631;28;20055;-34
2022/06/26 02:21:31;;;;;;;14.95;8.98;;;;;;;21.00;100.00;99958.06;5049011;28;20074;-29
2022/06/26 02:23:59;;;;;;;12.88;8.18;;;;;;;20.99;100.00;99961.91;5067053;28;20078;-33
2022/06/26 02:26:25;;;;;;;11.48;8.52;;;;;;;21.06;100.00;99960.44;5048705;28;20036;-30
2022/06/26 02:28:51;;;;;;;14.38;8.95;;;;;;;21.03;100.00;99952.09;5067252;28;20039;-30
2022/06/26 02:31:16;;;;;;;15.00;9.90;;;;;;;21.54;98.55;99970.38;5066471;28;20055;-39
2022/06/26 02:33:42;;;;;;;11.82;9.68;;;;;;;21.52;95.22;99964.44;5066721;28;20535;-33
2022/06/26 02:36:08;;;;;;;12.95;9.32;;;;;;;21.46;95.79;99979.19;5066776;28;20086;-30
2022/06/26 02:38:34;;;;;;;12.30;9.65;;;;;;;21.34;95.70;99957.88;5048783;28;20055;-28
2022/06/26 02:41:00;;;;;;;13.07;10.15;;;;;;;21.28;96.16;99957.16;5048871;28;20462;-29
2022/06/26 02:43:26;;;;;;;15.52;11.15;;;;;;;21.37;97.16;99973.59;5048171;28;20025;-30
2022/06/26 02:45:53;;;;;;;15.68;11.95;;;;;;;21.37;96.67;99964.63;5066718;28;20063;-30
2022/06/26 02:48:20;;;;;;;14.02;10.80;;;;;;;21.42;96.49;99961.84;5048278;28;20060;-29
2022/06/26 02:50:47;;;;;;;16.77;12.13;;;;;;;21.31;97.19;99958.50;5049114;28;20044;-30
2022/06/26 02:53:13;;;;;;;16.48;11.15;;;;;;;21.45;98.61;99980.28;5048156;28;20040;-31
2022/06/26 02:55:38;;;;;;;16.20;11.68;;;;;;;21.53;96.67;99976.91;5066735;28;20020;-32
2022/06/26 02:58:04;;;;;;;12.60;11.15;;;;;;;21.43;97.58;99966.19;5066636;28;20029;-29
2022/06/26 03:00:30;;;;;;;14.57;10.77;;;;;;;21.35;97.72;99970.38;5065197;28;20024;-30
2022/06/26 03:02:55;;;;;;;13.93;11.18;;;;;;;21.17;99.20;99963.81;5066235;28;20067;-31
2022/06/26 03:05:21;;;;;;;13.32;10.55;;;;;;;21.14;100.00;99975.25;5066466;28;20166;-29
2022/06/26 03:07:46;;;;;;;15.88;10.18;;;;;;;21.18;100.00;99970.03;5066865;28;20442;-36
2022/06/26 03:10:12;;;;;;;12.45;10.43;;;;;;;21.48;99.42;99968.84;5066650;28;20796;-30
2022/06/26 03:12:45;;;;;;;16.67;10.98;;;;;;;21.05;100.00;99960.72;5066474;28;20559;-29
2022/06/26 03:15:11;;;;;;;15.57;11.65;;;;;;;21.12;100.00;99982.84;5064486;28;20024;-34
2022/06/26 03:17:37;;;;;;;17.85;11.88;;;;;;;20.88;100.00;99972.03;5047996;28;20032;-28
2022/06/26 03:20:06;;;;;;;14.25;12.40;;;;;;;20.66;100.00;99967.97;5066423;28;20093;-35
2022/06/26 03:22:31;;;;;;;16.15;13.52;;;;;;;20.74;100.00;99969.25;5066138;28;20033;-33
2022/06/26 03:24:56;;;;;;;18.08;14.25;;;;;;;20.60;100.00;99965.63;5048252;28;20031;-30
2022/06/26 03:27:22;;;;;;;17.30;13.82;;;;;;;20.41;100.00;99968.19;5047777;28;20052;-31
2022/06/26 03:29:47;;;;;;;19.17;13.32;;;;;;;20.47;100.00;99956.22;5066370;28;20035;-36
2022/06/26 03:32:13;;;;;;;18.52;13.70;;;;;;;20.75;100.00;99978.97;5065904;28;20097;-29
2022/06/26 03:34:38;;;;;;;18.05;13.45;;;;;;;20.36;100.00;99965.56;5066643;28;20039;-36
2022/06/26 03:37:04;;;;;;;17.38;13.88;;;;;;;20.73;100.00;99992.00;5065917;28;20048;-34
2022/06/26 03:39:29;;;;;;;18.50;14.32;;;;;;;20.80;100.00;99987.06;5066302;28;20027;-30
2022/06/26 03:41:58;;;;;;;16.08;14.02;;;;;;;20.85;100.00;99973.44;5066276;28;20086;-29
2022/06/26 03:44:25;;;;;;;17.70;14.57;;;;;;;21.06;100.00;99984.84;5047913;28;20028;-29
2022/06/26 03:46:51;;;;;;;15.83;13.60;;;;;;;21.04;100.00;99986.22;5066604;28;20162;-34
2022/06/26 03:49:16;;;;;;;16.13;13.05;;;;;;;20.79;100.00;99974.59;5065994;28;20032;-34
2022/06/26 03:51:42;;;;;;;13.88;12.35;;;;;;;20.71;100.00;99967.09;5066286;28;20032;-29
2022/06/26 03:54:07;;;;;;;14.45;12.65;;;;;;;20.69;100.00;99973.91;5065972;28;20025;-29
2022/06/26 03:56:33;;;;;;;14.00;12.23;;;;;;;20.88;100.00;99974.75;5065966;28;20074;-29
2022/06/26 03:58:58;;;;;;;14.55;12.13;;;;;;;20.98;100.00;99987.38;5064434;28;20577;-35
2022/06/26 04:01:24;;;;;;;13.55;11.60;;;;;;;21.10;100.00;99986.97;5065399;28;20479;-31
2022/06/26 04:03:49;;;;;;;14.27;11.35;;;;;;;20.83;100.00;99970.19;5048231;28;20032;-33
2022/06/26 04:06:15;;;;;;;14.77;11.43;;;;;;;21.02;100.00;99985.69;5065928;28;20403;-29
2022/06/26 04:08:40;;;;;;;14.27;10.70;;;;;;;20.97;100.00;99996.63;5065829;28;20017;-36
2022/06/26 04:11:06;;;;;;;15.23;11.68;;;;;;;20.87;100.00;99968.53;5067726;28;20040;-29
2022/06/26 04:13:31;;;;;;;12.35;11.05;;;;;;;20.99;100.00;99992.50;5069457;28;20111;-29
2022/06/26 04:15:58;;;;;;;13.57;10.95;;;;;;;20.90;100.00;99975.25;5069482;28;20416;-29
2022/06/26 04:18:23;;;;;;;13.27;9.93;;;;;;;21.00;100.00;99990.59;5069480;28;20051;-29
2022/06/26 04:20:49;;;;;;;14.65;10.20;;;;;;;20.71;100.00;99994.19;5069364;28;20036;-29
2022/06/26 04:23:14;;;;;;;13.98;10.95;;;;;;;20.58;100.00;99995.69;5068996;28;20036;-36
2022/06/26 04:25:40;;;;;;;14.13;10.77;;;;;;;20.22;100.00;99981.66;5069328;28;20031;-29
2022/06/26 04:28:07;;;;;;;13.95;10.88;;;;;;;20.32;100.00;99984.28;5050838;28;20495;-32
2022/06/26 04:30:34;;;;;;;14.52;11.02;;;;;;;20.51;100.00;99997.09;5069283;28;20032;-29
2022/06/26 04:32:59;;;;;;;13.83;11.00;;;;;;;20.45;100.00;99980.91;5068013;28;20039;-35
2022/06/26 04:35:25;;;;;;;13.15;11.40;;;;;;;20.66;100.00;99984.22;5069130;28;20258;-32
2022/06/26 04:37:51;;;;;;;13.75;10.43;;;;;;;20.54;100.00;99993.81;5068966;28;20036;-30
2022/06/26 04:40:16;;;;;;;13.65;10.95;;;;;;;20.72;100.00;100005.84;5069194;28;20029;-38
2022/06/26 04:42:42;;;;;;;12.40;11.10;;;;;;;20.39;100.00;100001.00;5068741;28;20028;-31
2022/06/26 04:45:10;;;;;;;12.85;11.00;;;;;;;20.54;100.00;100005.47;5050685;28;20048;-32
2022/06/26 04:47:35;;;;;;;13.75;11.15;;;;;;;20.77;100.00;99998.47;5050649;28;20028;-33
2022/06/26 04:50:01;;;;;;;14.02;10.45;;;;;;;20.73;100.00;99981.16;5068757;28;20024;-31
2022/06/26 04:52:27;;;;;;;15.02;11.65;;;;;;;20.71;100.00;99988.78;5050736;28;20059;-29
2022/06/26 04:54:53;;;;;;;15.25;11.13;;;;;;;20.79;100.00;99988.13;5068514;28;20403;-32
2022/06/26 04:57:18;;;;;;;15.52;11.35;;;;;;;20.87;100.00;99995.63;5050166;28;20419;-31
2022/06/26 04:59:44;;;;;;;14.15;11.48;;;;;;;20.78;100.00;99997.38;5068633;28;20108;-31
2022/06/26 05:02:10;;;;;;;13.05;11.70;;;;;;;20.70;100.00;100006.16;5068465;28;20048;-29
2022/06/26 05:04:36;;;;;;;13.05;10.32;;;;;;;20.50;100.00;99971.13;5067161;28;20036;-32
2022/06/26 05:07:02;;;;;;;12.82;10.65;;;;;;;20.55;100.00;99990.00;5050361;28;20037;-30
2022/06/26 05:09:28;;;;;;;12.93;11.23;;;;;;;20.62;100.00;99990.50;5050379;28;20381;-29
2022/06/26 05:11:53;;;;;;;16.25;10.55;;;;;;;20.79;100.00;100001.69;5068132;28;20070;-31
2022/06/26 05:14:19;;;;;;;14.48;11.90;;;;;;;20.79;100.00;100001.69;5068518;28;20031;-30
2022/06/26 05:16:45;;;;;;;13.23;10.65;;;;;;;20.66;100.00;99969.88;5068730;28;20036;-28
2022/06/26 05:19:11;;;;;;;14.93;11.90;;;;;;;20.82;100.00;100003.84;5068027;28;20514;-36
2022/06/26 05:21:40;;;;;;;14.90;11.48;;;;;;;20.94;100.00;100013.44;5050184;28;20033;-29
2022/06/26 05:24:05;;;;;;;13.77;11.20;;;;;;;21.00;100.00;100007.69;5050235;28;20035;-30
2022/06/26 05:26:31;;;;;;;12.85;11.23;;;;;;;21.08;100.00;100014.38;5068056;28;20036;-33
2022/06/26 05:28:57;;;;;;;13.77;11.20;;;;;;;21.12;100.00;100020.81;5068239;28;20058;-29
2022/06/26 05:31:23;;;;;;;13.27;11.07;;;;;;;21.13;100.00;100022.44;5050018;28;20388;-31
2022/06/26 05:33:49;;;;;;;11.90;10.70;;;;;;;21.22;100.00;100022.59;5068058;28;20612;-29
2022/06/26 05:36:15;;;;;;;12.77;10.98;;;;;;;21.13;100.00;100002.66;5049926;28;20020;-33
2022/06/26 05:38:41;;;;;;;11.23;9.77;;;;;;;21.24;99.34;100018.50;5067765;28;20021;-36
2022/06/26 05:41:07;;;;;;;12.00;9.43;;;;;;;21.22;100.00;100031.53;5049687;28;20071;-32
2022/06/26 05:43:33;;;;;;;8.48;7.40;;;;;;;21.40;98.37;100034.59;5067897;28;20467;-29
2022/06/26 05:45:59;;;;;;;10.27;7.90;;;;;;;21.64;97.15;100045.41;5066684;28;20043;-33
2022/06/26 05:48:25;;;;;;;9.07;7.38;;;;;;;21.65;97.17;100055.16;5068161;28;20032;-29
2022/06/26 05:50:51;;;;;;;10.23;7.00;;;;;;;21.75;95.21;100043.34;5067799;28;20032;-32
2022/06/26 05:53:17;;;;;;;11.15;6.60;;;;;;;21.66;93.40;100044.00;5067353;28;20025;-40
2022/06/26 05:55:43;;;;;;;10.63;7.93;;;;;;;22.01;94.04;100063.59;5049609;28;20043;-29
2022/06/26 05:58:10;;;;;;;9.38;6.70;;;;;;;22.02;93.78;100070.63;5049565;28;20048;-29
2022/06/26 06:00:36;;;;;;;11.05;8.07;;;;;;;22.05;92.71;100075.47;5066199;28;20094;-34
2022/06/26 06:03:02;;;;;;;10.27;7.40;;;;;;;21.80;93.77;100062.25;5066305;28;20044;-34
2022/06/26 06:05:27;;;;;;;8.90;7.30;;;;;;;21.95;95.22;100072.13;5048268;28;20438;-29
2022/06/26 06:07:54;;;;;;;12.27;8.02;;;;;;;22.06;95.65;100070.84;5067045;28;20024;-29
2022/06/26 06:10:19;;;;;;;11.30;8.25;;;;;;;22.34;93.61;100071.78;5067336;28;20025;-29
2022/06/26 06:12:46;;;;;;;9.05;8.05;;;;;;;22.34;91.21;100060.91;5078483;28;20126;-29
2022/06/26 06:15:12;;;;;;;11.68;8.80;;;;;;;22.46;92.15;100063.97;5068770;28;20551;-35
2022/06/26 06:17:40;;;;;;;11.30;8.10;;;;;;;22.52;91.05;100072.03;5057944;28;20734;-30
2022/06/26 06:20:13;;;;;;;;;;;;;;;22.65;91.10;100073.97;5074292;28;20039;-29
2022/06/26 06:22:45;;;;;;;9.93;8.15;;;;;;;22.74;91.81;100061.31;5075000;28;19916;-28
2022/06/26 06:25:11;;;;;;;8.25;7.45;;;;;;;22.82;91.38;100060.63;5064525;28;20063;-33
2022/06/26 06:27:38;;;;;;;11.15;8.32;;;;;;;22.84;91.87;100069.28;5052925;28;20208;-32
2022/06/26 06:30:06;;;;;;;12.27;7.50;;;;;;;22.81;91.24;100075.31;5065277;28;20029;-29
2022/06/26 06:32:31;;;;;;;;;;;;;;;22.99;92.15;100078.25;5064105;28;20702;-31
2022/06/26 06:34:57;;;;;;;10.00;6.70;;;;;;;23.00;88.26;100074.41;5066268;28;19913;-29
2022/06/26 06:37:22;;;;;;;14.05;8.00;;;;;;;22.87;88.75;100070.56;5066698;28;20400;-34
2022/06/26 06:39:48;;;;;;;11.95;8.32;;;;;;;22.80;90.64;100060.09;5066749;28;20020;-31
2022/06/26 06:42:13;;;;;;;10.07;7.22;;;;;;;22.85;89.34;100075.50;5066977;28;20031;-33
2022/06/26 06:44:39;;;;;;;10.48;7.47;;;;;;;22.77;90.31;100063.41;5066983;28;20028;-29
2022/06/26 06:47:06;;;;;;;9.52;7.45;;;;;;;22.87;88.28;100079.53;5066550;28;20036;-29
2022/06/26 06:49:31;;;;;;;10.68;7.80;;;;;;;23.24;90.05;100077.75;5048611;28;20029;-28
2022/06/26 06:51:57;;;;;;;8.65;7.60;;;;;;;23.40;90.87;100058.41;5066782;28;20089;-30
2022/06/26 06:54:23;;;;;;;9.98;7.30;;;;;;;23.53;86.06;100073.09;5067017;28;20029;-33
2022/06/26 06:56:48;;;;;;;11.50;7.70;;;;;;;23.61;86.94;100075.09;5066914;28;20418;-31
2022/06/26 06:59:14;;;;;;;9.75;7.55;;;;;;;23.65;84.52;100068.72;5066514;28;20024;-34
2022/06/26 07:01:40;;;;;;;9.13;6.78;;;;;;;23.82;85.61;100062.69;5048101;28;20395;-29
2022/06/26 07:04:06;;;;;;;8.52;6.70;;;;;;;24.25;85.98;100064.09;5066875;28;20043;-32
2022/06/26 07:06:32;;;;;;;7.00;5.60;;;;;;;24.19;81.12;100073.50;5048570;28;20039;-31
2022/06/26 07:08:57;;;;;;;7.63;5.90;;;;;;;24.23;81.65;100064.44;5066616;28;20036;-29
2022/06/26 07:11:23;;;;;;;7.53;5.88;;;;;;;24.13;81.67;100085.66;5066142;28;20029;-30
2022/06/26 07:13:49;;;;;;;8.93;6.05;;;;;;;23.98;79.36;100079.44;5066613;28;20036;-35
2022/06/26 07:16:14;;;;;;;10.07;6.32;;;;;;;24.04;83.37;100072.75;5066481;28;20086;-31
2022/06/26 07:18:39;;;;;;;7.70;5.60;;;;;;;23.99;79.30;100072.91;5066627;28;20028;-31
2022/06/26 07:21:07;;;;;;;6.75;5.38;;;;;;;24.29;78.45;100077.91;5066294;28;20474;-32
2022/06/26 07:23:32;;;;;;;7.80;5.70;;;;;;;24.14;79.69;100063.53;5065175;28;20484;-28
2022/06/26 07:25:58;;;;;;;7.65;5.72;;;;;;;24.30;79.87;100077.59;5066646;28;20056;-30
2022/06/26 07:28:23;;;;;;;7.15;5.53;;;;;;;24.27;78.15;100070.88;5066692;28;20569;-30
2022/06/26 07:30:49;;;;;;;8.27;5.65;;;;;;;24.11;78.18;100060.63;5065533;28;20029;-36
2022/06/26 07:36:00;;;;;;;9.13;6.72;;;;;;;24.46;79.24;100076.09;5054653;28;20132;-31
2022/06/26 07:38:25;;;;;;;7.95;5.95;;;;;;;24.63;79.26;100077.34;5066828;28;20099;-32
2022/06/26 07:40:51;;;;;;;9.48;7.03;;;;;;;25.04;79.51;100070.78;5066972;28;20028;-29
2022/06/26 07:43:17;;;;;;;10.90;7.40;;;;;;;25.35;78.16;100076.19;5065913;28;20397;-34
2022/06/26 07:45:42;;;;;;;10.25;7.82;;;;;;;25.57;76.56;100053.44;5069669;28;20036;-29
2022/06/26 07:48:08;;;;;;;11.30;10.07;;;;;;;25.56;76.65;100068.22;5070018;28;20029;-30
2022/06/26 07:50:33;;;;;;;13.10;9.90;;;;;;;25.61;74.19;100062.59;5070374;28;20040;-29
2022/06/26 07:52:59;;;;;;;13.45;9.85;;;;;;;25.87;75.19;100067.28;5052302;28;20127;-29
2022/06/26 07:55:24;;;;;;;11.98;9.75;;;;;;;25.45;76.84;100058.72;5070046;28;20025;-34
2022/06/26 07:57:50;;;;;;;13.02;10.70;;;;;;;25.94;74.55;100070.34;5070131;28;20032;-32
2022/06/26 08:00:15;;;;;;;13.25;11.00;;;;;;;26.05;74.86;100079.84;5070042;28;20021;-30
2022/06/26 08:02:41;;;;;;;14.43;10.80;;;;;;;25.90;75.48;100074.06;5069708;28;20622;-29
2022/06/26 08:05:07;;;;;;;13.70;11.65;;;;;;;25.91;75.37;100071.00;5069502;28;20495;-32
2022/06/26 08:07:32;;;;;;;14.27;11.35;;;;;;;25.81;77.93;100065.84;5069957;28;20029;-29
2022/06/26 08:09:58;;;;;;;16.00;12.13;;;;;;;25.38;76.40;100072.06;5069957;28;20027;-28
2022/06/26 08:12:24;;;;;;;14.43;12.82;;;;;;;25.43;78.03;100074.63;5069931;28;20111;-31
2022/06/26 08:14:49;;;;;;;19.20;13.48;;;;;;;25.63;78.58;100057.63;5069573;28;20559;-31
2022/06/26 08:17:14;;;;;;;14.75;12.25;;;;;;;25.50;76.77;100060.47;5069471;28;20112;-33
2022/06/26 08:19:40;;;;;;;16.48;12.20;;;;;;;25.66;74.21;100070.66;5069469;28;20029;-32
2022/06/26 08:22:06;;;;;;;14.43;12.52;;;;;;;26.08;73.60;100080.31;5069651;28;20035;-31
2022/06/26 08:24:33;;;;;;;13.48;12.02;;;;;;;26.35;74.51;100079.94;5069515;28;20035;-29
2022/06/26 08:27:00;;;;;;;13.35;11.52;;;;;;;26.38;72.74;100075.78;5068032;28;20504;-32
2022/06/26 08:29:26;;;;;;;12.85;11.15;;;;;;;26.15;72.53;100066.97;5069251;28;20036;-33
2022/06/26 08:31:51;;;;;;;11.77;10.27;;;;;;;26.25;70.84;100058.41;5069270;28;20036;-29
2022/06/26 08:34:17;;;;;;;13.48;10.80;;;;;;;26.73;73.30;100073.78;5069420;28;20059;-29
2022/06/26 08:36:42;;;;;;;13.48;10.10;;;;;;;27.06;70.04;100070.41;5069155;28;20033;-29
2022/06/26 08:39:08;;;;;;;12.60;10.07;;;;;;;26.92;69.54;100067.91;5069196;28;20025;-29
2022/06/26 08:41:45;;;;;;;11.27;9.45;;;;;;;26.83;69.88;100067.94;5051208;28;20028;-30
2022/06/26 08:44:11;;;;;;;12.27;9.70;;;;;;;26.87;68.78;100070.84;5069161;28;20028;-36
2022/06/26 08:46:40;;;;;;;11.70;9.85;;;;;;;26.64;69.19;100071.06;5067644;28;20033;-30
2022/06/26 08:49:11;;;;;;;11.05;9.10;;;;;;;26.44;68.95;100072.53;5050907;28;20051;-35
2022/06/26 08:51:42;;;;;;;10.48;9.38;;;;;;;26.62;67.98;100075.25;5067778;28;20484;-29
2022/06/26 08:54:09;;;;;;;10.25;8.82;;;;;;;26.58;69.91;100061.44;5069067;28;20115;-29
2022/06/26 08:56:38;;;;;;;11.75;9.05;;;;;;;26.80;67.78;100065.84;5050499;28;20514;-32
2022/06/26 08:59:04;;;;;;;15.35;9.68;;;;;;;26.96;68.02;100065.31;5068353;28;20039;-33
2022/06/26 09:01:29;;;;;;;10.55;8.95;;;;;;;27.34;69.90;100080.91;5050219;28;20028;-29
2022/06/26 09:03:55;;;;;;;9.85;8.38;;;;;;;27.49;66.04;100066.66;5050975;28;20036;-28
2022/06/26 09:06:20;;;;;;;10.13;8.07;;;;;;;27.32;64.51;100083.19;5068947;28;20106;-31
2022/06/26 09:08:50;;;;;;;9.98;8.98;;;;;;;27.43;68.28;100068.78;5068938;28;20040;-28
2022/06/26 09:11:17;;;;;;;10.68;7.93;;;;;;;27.21;63.08;100080.00;5068605;28;20040;-33
2022/06/26 09:13:44;;;;;;;10.25;8.32;;;;;;;27.07;65.81;100085.69;5050500;28;20035;-30
2022/06/26 09:16:11;;;;;;;11.63;8.98;;;;;;;26.96;65.83;100068.06;5067492;28;20036;-28
2022/06/26 09:18:39;;;;;;;13.27;9.05;;;;;;;26.76;66.61;100088.72;5068784;28;20028;-34
2022/06/26 09:21:07;;;;;;;11.50;9.35;;;;;;;26.83;66.54;100070.69;5050682;28;20198;-32
2022/06/26 09:23:33;;;;;;;;;;;;;;;27.23;66.30;100075.81;5067656;28;20021;-33
2022/06/26 09:26:00;;;;;;;10.20;9.05;;;;;;;27.38;64.54;100077.19;5050288;28;20006;-32
2022/06/26 09:28:26;;;;;;;11.00;9.82;;;;;;;27.68;63.45;100079.09;5066803;28;20070;-34
2022/06/26 09:30:55;;;;;;;11.60;9.45;;;;;;;27.66;63.00;100082.16;5050177;28;20032;-32
2022/06/26 09:33:28;;;;;;;12.20;9.80;;;;;;;27.57;64.36;100076.75;5050038;28;20123;-32
2022/06/26 09:35:55;;;;;;;10.82;9.20;;;;;;;27.56;62.15;100072.38;5050118;28;20024;-29
2022/06/26 09:38:23;;;;;;;12.47;11.10;;;;;;;27.94;63.45;100078.91;5068181;28;20043;-29
2022/06/26 09:41:03;;;;;;;13.18;10.05;;;;;;;28.18;63.04;100076.28;5049859;28;20039;-29
2022/06/26 09:43:43;;;;;;;15.57;10.75;;;;;;;27.89;62.11;100063.50;5068062;28;20499;-29
2022/06/26 09:46:11;;;;;;;12.13;10.80;;;;;;;28.15;65.25;100065.97;5049946;28;20033;-29
2022/06/26 09:48:38;;;;;;;13.38;10.60;;;;;;;28.82;62.43;100063.19;5049839;28;20056;-31
2022/06/26 09:51:09;;;;;;;12.50;11.23;;;;;;;28.69;62.62;100073.34;5066302;28;20028;-29
2022/06/26 09:53:35;;;;;;;13.40;11.77;;;;;;;28.47;63.39;100065.50;5067792;28;20036;-35
2022/06/26 09:56:01;;;;;;;15.38;12.52;;;;;;;27.93;63.77;100066.34;5049700;28;20482;-29
2022/06/26 09:58:29;;;;;;;14.60;13.02;;;;;;;27.73;64.56;100054.25;5067760;28;20040;-34
2022/06/26 10:06:29;;;;;;;16.70;13.60;;;;;;;28.12;61.36;100068.59;5067166;28;20082;-29
2022/06/26 10:08:59;;;;;;;48.40;15.73;;;;;;;28.18;61.66;100070.00;5067669;28;20129;-28
2022/06/26 10:11:27;;;;;;;15.15;13.63;;;;;;;28.42;63.90;100069.25;5065816;28;20033;-30
2022/06/26 10:14:11;;;;;;;15.30;13.38;;;;;;;28.21;64.43;100069.31;5065917;28;20541;-32
2022/06/26 10:16:36;;;;;;;16.30;14.60;;;;;;;28.35;62.32;100069.81;5049497;28;20529;-29
2022/06/26 10:19:20;;;;;;;16.73;14.80;;;;;;;28.55;63.85;100053.66;5049078;28;20149;-31
2022/06/26 10:21:46;;;;;;;16.17;14.48;;;;;;;28.53;62.61;100045.78;5049240;28;20035;-29
2022/06/26 10:24:12;;;;;;;12.80;11.43;;;;;;;28.31;58.99;100063.41;5049102;28;20106;-29
2022/06/26 10:26:38;;;;;;;14.13;11.80;;;;;;;28.60;60.10;100067.94;5048663;28;20480;-33
2022/06/26 10:29:06;;;;;;;14.07;12.68;;;;;;;28.44;59.72;100059.56;5066812;28;20472;-29
2022/06/26 10:31:43;;;;;;;;;;;;;;;28.62;61.41;100059.38;5067492;28;20032;-28
2022/06/26 10:34:31;;;;;;;28.20;13.35;;;;;;;28.78;60.19;100060.31;5049026;28;19947;-29
2022/06/26 10:37:02;;;;;;;12.10;10.80;;;;;;;28.18;60.06;100061.78;5048847;28;20028;-35
2022/06/26 10:39:43;;;;;;;12.30;11.07;;;;;;;28.54;59.93;100057.53;5066995;28;20033;-33
2022/06/26 10:45:16;;;;;;;12.10;10.80;;;;;;;29.36;55.08;100051.16;5066999;28;20479;-28
2022/06/26 10:47:46;;;;;;;14.05;12.02;;;;;;;29.23;58.33;100053.94;5048667;28;20043;-29
2022/06/26 10:50:25;;;;;;;11.57;9.80;;;;;;;28.85;55.48;100032.28;5048726;28;20470;-29
2022/06/26 10:52:51;;;;;;;10.32;9.32;;;;;;;28.42;57.20;100031.69;5048824;28;20032;-30
2022/06/26 10:55:17;;;;;;;12.52;10.23;;;;;;;28.32;58.62;100036.78;5048535;28;20085;-33
2022/06/26 10:57:42;;;;;;;9.65;8.25;;;;;;;28.72;55.67;100045.22;5066842;28;20025;-29
2022/06/26 11:00:12;;;;;;;10.05;7.68;;;;;;;29.15;52.29;100041.13;5048944;28;20041;-29
2022/06/26 11:02:41;;;;;;;7.55;5.65;;;;;;;28.78;51.07;100038.38;5066649;28;20049;-32
2022/06/26 11:05:09;;;;;;;8.77;7.07;;;;;;;28.66;54.10;100035.59;5048620;28;20128;-31
2022/06/26 11:07:53;;;;;;;9.18;7.10;;;;;;;28.69;53.76;100025.88;5066783;28;20409;-37
2022/06/26 11:10:21;;;;;;;30.45;9.85;;;;;;;28.20;54.69;100035.63;5066591;28;20027;-29
2022/06/26 11:12:49;;;;;;;10.82;8.80;;;;;;;28.20;56.32;100024.66;5048504;28;20032;-37
2022/06/26 11:15:26;;;;;;;8.95;7.60;;;;;;;28.00;54.38;100031.78;5064955;28;20586;-33
2022/06/26 11:18:06;;;;;;;9.57;7.57;;;;;;;27.76;55.72;100026.16;5048832;28;20028;-31
2022/06/26 11:20:50;;;;;;;7.97;6.78;;;;;;;27.92;55.92;100043.63;5069278;28;20043;-31
2022/06/26 11:23:21;;;;;;;8.20;6.95;;;;;;;27.98;56.96;100049.69;5070512;28;20028;-29
2022/06/26 11:25:49;;;;;;;8.90;7.78;;;;;;;28.08;56.64;100037.53;5070921;28;20095;-31
2022/06/26 11:28:16;;;;;;;9.05;7.15;;;;;;;28.04;55.66;100038.19;5052678;28;20028;-42
2022/06/26 11:30:43;;;;;;;9.43;7.65;;;;;;;28.01;56.61;100036.13;5069533;28;20025;-29